createdAt,value
2019-03-27T00:01:53.492Z,10.27
2019-03-27T00:04:23.512Z,10.73
2019-03-27T00:06:53.435Z,11.13
2019-03-27T00:09:23.645Z,13.23
2019-03-27T00:11:53.664Z,11.83
2019-03-27T00:14:23.718Z,11.67
2019-03-27T00:16:53.660Z,10.97
2019-03-27T00:19:23.873Z,12.67
2019-03-27T00:21:53.835Z,10.63
2019-03-27T00:24:23.787Z,11.70
2019-03-27T00:26:53.761Z,10.80
2019-03-27T00:29:23.682Z,12.60
2019-03-27T00:31:53.826Z,12.50
2019-03-27T00:34:23.836Z,10.57
2019-03-27T00:36:53.872Z,11.40
2019-03-27T00:39:23.874Z,12.40
2019-03-27T00:41:53.899Z,11.43
2019-03-27T00:44:23.912Z,11.73
2019-03-27T00:46:53.907Z,12.17
2019-03-27T00:49:23.859Z,11.63
2019-03-27T00:51:53.868Z,11.63
2019-03-27T00:54:23.796Z,12.20
2019-03-27T00:56:53.788Z,12.17
2019-03-27T00:59:23.932Z,12.70
2019-03-27T01:01:53.964Z,12.40
2019-03-27T01:04:23.893Z,12.70
2019-03-27T01:06:53.883Z,12.10
2019-03-27T01:09:23.789Z,13.67
2019-03-27T01:11:53.910Z,14.07
2019-03-27T01:14:23.903Z,13.03
2019-03-27T01:16:53.961Z,11.60
2019-03-27T01:19:23.917Z,12.50
2019-03-27T01:21:53.952Z,13.50
2019-03-27T01:24:23.978Z,14.10
2019-03-27T01:26:53.982Z,13.20
2019-03-27T01:29:23.963Z,13.80
2019-03-27T01:31:54.024Z,13.10
2019-03-27T01:34:24.415Z,12.93
2019-03-27T01:36:54.383Z,13.33
2019-03-27T01:39:24.397Z,13.10
2019-03-27T01:41:54.425Z,12.87
2019-03-27T01:44:24.454Z,13.37
2019-03-27T01:46:54.473Z,12.90
2019-03-27T01:49:24.553Z,13.87
2019-03-27T01:51:54.813Z,14.40
2019-03-27T01:54:25.000Z,13.47
2019-03-27T01:56:55.335Z,16.00
2019-03-27T01:59:25.280Z,14.77
2019-03-27T02:01:55.465Z,13.67
2019-03-27T02:04:25.418Z,13.77
2019-03-27T02:06:55.406Z,13.37
2019-03-27T02:09:25.645Z,13.57
2019-03-27T02:11:55.897Z,12.17
2019-03-27T02:14:25.844Z,13.67
2019-03-27T02:16:55.775Z,14.63
2019-03-27T02:19:25.802Z,13.77
2019-03-27T02:21:55.738Z,12.37
2019-03-27T02:24:25.732Z,14.27
2019-03-27T02:26:55.674Z,11.67
2019-03-27T02:29:25.676Z,14.17
2019-03-27T02:31:55.681Z,13.80
2019-03-27T02:34:25.772Z,12.60
2019-03-27T02:36:55.727Z,13.47
2019-03-27T02:39:25.765Z,13.17
2019-03-27T02:41:55.677Z,14.13
2019-03-27T02:44:25.611Z,12.90
2019-03-27T02:46:55.802Z,14.27
2019-03-27T02:49:25.920Z,12.80
2019-03-27T02:51:55.939Z,12.20
2019-03-27T02:54:25.949Z,12.50
2019-03-27T02:56:55.900Z,14.43
2019-03-27T02:59:25.895Z,14.93
2019-03-27T03:01:55.929Z,15.47
2019-03-27T03:04:25.853Z,12.50
2019-03-27T03:06:55.764Z,13.60
2019-03-27T03:09:25.848Z,14.27
2019-03-27T03:11:56.133Z,13.40
2019-03-27T03:14:26.088Z,14.37
2019-03-27T03:16:56.008Z,14.20
2019-03-27T03:19:26.050Z,13.30
2019-03-27T03:21:55.963Z,13.30
2019-03-27T03:24:25.977Z,12.90
2019-03-27T03:26:56.076Z,13.63
2019-03-27T03:29:26.029Z,12.67
2019-03-27T03:31:56.141Z,12.90
2019-03-27T03:34:26.807Z,13.17
2019-03-27T03:36:56.890Z,11.87
2019-03-27T03:39:27.117Z,12.33
2019-03-27T03:41:57.140Z,12.37
2019-03-27T03:44:27.326Z,11.83
2019-03-27T03:46:59.896Z,11.77
2019-03-27T03:49:29.120Z,11.53
2019-03-27T03:51:59.147Z,10.00
2019-03-27T03:54:29.442Z,9.50
2019-03-27T03:56:59.898Z,10.77
2019-03-27T03:59:30.703Z,9.50
2019-03-27T04:02:03.791Z,10.80
2019-03-27T04:04:36.075Z,10.07
2019-03-27T04:07:05.992Z,9.67
2019-03-27T04:09:35.914Z,10.10
2019-03-27T04:12:05.835Z,10.80
2019-03-27T04:14:36.060Z,10.00
2019-03-27T04:17:17.060Z,10.73
2019-03-27T04:19:37.764Z,10.10
2019-03-27T04:22:07.807Z,9.50
2019-03-27T04:24:37.891Z,10.87
2019-03-27T04:27:07.806Z,11.33
2019-03-27T04:29:37.798Z,10.30
2019-03-27T04:32:07.741Z,10.13
2019-03-27T04:34:37.923Z,10.90
2019-03-27T04:37:08.376Z,10.97
2019-03-27T04:39:38.617Z,11.10
2019-03-27T04:42:08.575Z,10.73
2019-03-27T04:44:38.529Z,10.80
2019-03-27T04:47:08.440Z,10.60
2019-03-27T04:49:38.466Z,10.93
2019-03-27T04:52:08.554Z,10.80
2019-03-27T04:54:38.594Z,10.20
2019-03-27T04:57:08.497Z,9.30
2019-03-27T04:59:38.643Z,11.70
2019-03-27T05:02:08.634Z,9.53
2019-03-27T05:04:39.334Z,10.00
2019-03-27T05:07:09.375Z,10.53
2019-03-27T05:09:39.285Z,10.60
2019-03-27T05:12:09.258Z,10.00
2019-03-27T05:14:39.174Z,10.23
2019-03-27T05:17:09.105Z,10.97
2019-03-27T05:19:39.044Z,8.70
2019-03-27T05:22:08.973Z,9.63
2019-03-27T05:24:38.986Z,9.40
2019-03-27T05:27:09.410Z,8.90
2019-03-27T05:29:39.330Z,9.00
2019-03-27T05:32:09.451Z,9.00
2019-03-27T05:34:39.498Z,9.00
2019-03-27T05:37:09.606Z,8.90
2019-03-27T05:39:39.733Z,8.30
2019-03-27T05:42:09.846Z,8.50
2019-03-27T05:44:39.906Z,7.50
2019-03-27T05:47:09.932Z,7.67
2019-03-27T05:49:40.194Z,7.10
2019-03-27T05:52:10.129Z,6.73
2019-03-27T05:54:40.125Z,7.13
2019-03-27T05:57:10.060Z,6.80
2019-03-27T05:59:40.064Z,5.67
2019-03-27T06:02:10.052Z,5.90
2019-03-27T06:04:40.101Z,6.33
2019-03-27T06:07:10.352Z,6.60
2019-03-27T06:09:40.263Z,7.10
2019-03-27T06:12:10.374Z,7.23
2019-03-27T06:14:40.677Z,8.10
2019-03-27T06:17:11.109Z,8.07
2019-03-27T06:19:41.051Z,9.13
2019-03-27T06:22:11.351Z,10.03
2019-03-27T06:24:41.492Z,9.47
2019-03-27T06:27:11.742Z,9.87
2019-03-27T06:29:41.825Z,11.13
2019-03-27T06:32:11.840Z,10.97
2019-03-27T06:34:42.207Z,10.20
2019-03-27T06:37:12.249Z,10.50
2019-03-27T06:39:42.324Z,9.93
2019-03-27T06:42:12.423Z,10.20
2019-03-27T06:44:42.585Z,11.60
2019-03-27T06:47:12.616Z,11.37
2019-03-27T06:49:42.669Z,9.73
2019-03-27T06:52:12.915Z,9.20
2019-03-27T06:54:42.927Z,10.90
2019-03-27T06:57:13.126Z,7.90
2019-03-27T06:59:43.253Z,8.03
2019-03-27T07:02:13.274Z,8.07
2019-03-27T07:04:43.363Z,9.37
2019-03-27T07:07:13.482Z,8.60
2019-03-27T07:09:43.499Z,7.63
2019-03-27T07:12:21.109Z,7.50
2019-03-27T07:14:45.247Z,7.93
2019-03-27T07:17:15.174Z,8.73
2019-03-27T07:19:45.152Z,7.60
2019-03-27T07:22:15.212Z,7.10
2019-03-27T07:24:45.178Z,8.03
2019-03-27T07:27:15.743Z,6.70
2019-03-27T07:29:45.765Z,7.93
2019-03-27T07:32:15.873Z,6.20
2019-03-27T07:34:45.986Z,7.50
2019-03-27T07:37:16.086Z,8.00
2019-03-27T07:39:46.269Z,6.70
2019-03-27T07:42:16.334Z,8.57
2019-03-27T07:44:46.472Z,6.43
2019-03-27T07:47:16.400Z,7.77
2019-03-27T07:49:46.774Z,6.57
2019-03-27T07:52:16.733Z,7.07
2019-03-27T07:54:46.958Z,6.83
2019-03-27T07:57:16.989Z,7.70
2019-03-27T07:59:47.066Z,6.70
2019-03-27T08:02:17.209Z,6.03
2019-03-27T08:04:47.564Z,5.77
2019-03-27T08:07:26.753Z,7.07
2019-03-27T08:09:49.384Z,6.63
2019-03-27T08:12:19.713Z,5.90
2019-03-27T08:14:49.757Z,7.50
2019-03-27T08:17:19.846Z,6.23
2019-03-27T08:19:49.809Z,6.17
2019-03-27T08:22:19.993Z,6.50
2019-03-27T08:24:50.038Z,5.90
2019-03-27T08:27:20.339Z,6.47
2019-03-27T08:29:50.691Z,5.17
2019-03-27T08:32:20.616Z,4.97
2019-03-27T08:34:50.696Z,5.17
2019-03-27T08:37:20.937Z,3.73
2019-03-27T08:39:50.988Z,4.80
2019-03-27T08:42:21.034Z,4.00
2019-03-27T08:44:50.969Z,3.10
2019-03-27T08:47:20.897Z,4.57
2019-03-27T08:49:50.911Z,4.10
2019-03-27T08:52:20.857Z,3.50
2019-03-27T08:54:51.055Z,3.40
2019-03-27T08:57:20.996Z,3.40
2019-03-27T08:59:50.979Z,3.33
2019-03-27T09:02:21.140Z,3.23
2019-03-27T09:04:51.130Z,3.07
2019-03-27T09:07:21.341Z,2.90
2019-03-27T09:09:51.691Z,4.60
2019-03-27T09:12:21.593Z,2.77
2019-03-27T09:14:51.551Z,2.87
2019-03-27T09:17:21.808Z,2.77
2019-03-27T09:19:51.745Z,2.70
2019-03-27T09:22:21.865Z,3.00
2019-03-27T09:24:52.066Z,2.30
2019-03-27T09:27:22.312Z,2.30
2019-03-27T09:29:52.334Z,1.77
2019-03-27T09:32:22.556Z,2.60
2019-03-27T09:34:52.559Z,2.43
2019-03-27T09:37:22.727Z,2.30
2019-03-27T09:39:52.802Z,2.60
2019-03-27T09:42:22.709Z,2.77
2019-03-27T09:44:52.771Z,2.60
2019-03-27T09:47:22.942Z,2.83
2019-03-27T09:49:55.240Z,2.63
2019-03-27T09:52:25.340Z,2.03
2019-03-27T09:54:56.000Z,1.80
2019-03-27T09:57:25.961Z,1.90
2019-03-27T09:59:55.999Z,2.07
2019-03-27T10:02:26.050Z,1.80
2019-03-27T10:04:56.191Z,1.63
2019-03-27T10:07:26.275Z,1.30
2019-03-27T10:09:56.274Z,1.70
2019-03-27T10:12:26.961Z,1.70
2019-03-27T10:14:57.093Z,2.27
2019-03-27T10:17:27.109Z,2.40
2019-03-27T10:20:03.191Z,2.67
2019-03-27T10:22:28.822Z,2.17
2019-03-27T10:24:58.860Z,1.93
2019-03-27T10:27:29.047Z,1.03
2019-03-27T10:29:59.089Z,1.50
2019-03-27T10:32:29.127Z,1.50
2019-03-27T10:34:59.091Z,1.10
2019-03-27T10:37:29.062Z,1.53
2019-03-27T10:39:59.182Z,1.37
2019-03-27T10:42:29.140Z,1.20
2019-03-27T10:44:59.143Z,1.07
2019-03-27T10:47:29.122Z,1.13
2019-03-27T10:49:59.228Z,1.50
2019-03-27T10:52:29.314Z,1.40
2019-03-27T10:54:59.463Z,1.50
2019-03-27T10:57:29.372Z,1.07
2019-03-27T10:59:59.327Z,1.13
2019-03-27T11:02:29.423Z,0.97
2019-03-27T11:04:59.369Z,1.10
2019-03-27T11:07:29.361Z,0.97
2019-03-27T11:09:59.311Z,1.10
2019-03-27T11:12:29.239Z,1.30
2019-03-27T11:14:59.290Z,1.23
2019-03-27T11:17:29.432Z,0.97
2019-03-27T11:19:59.383Z,1.17
2019-03-27T11:22:29.328Z,1.00
2019-03-27T11:24:59.236Z,0.90
2019-03-27T11:27:29.519Z,1.70
2019-03-27T11:29:59.633Z,1.50
2019-03-27T11:32:30.028Z,1.07
2019-03-27T11:35:00.092Z,1.47
2019-03-27T11:37:30.284Z,1.20
2019-03-27T11:40:00.387Z,1.20
2019-03-27T11:42:30.557Z,1.00
2019-03-27T11:45:00.878Z,0.90
2019-03-27T11:47:31.031Z,1.37
2019-03-27T11:50:01.065Z,1.30
2019-03-27T11:52:31.151Z,1.17
2019-03-27T11:55:01.192Z,0.80
2019-03-27T11:57:34.072Z,1.00
2019-03-27T12:00:06.333Z,1.03
2019-03-27T12:02:36.309Z,1.20
2019-03-27T12:05:06.820Z,1.20
2019-03-27T12:07:36.970Z,1.03
2019-03-27T12:10:07.376Z,0.97
2019-03-27T12:12:37.739Z,1.43
2019-03-27T12:15:09.042Z,1.70
2019-03-27T12:17:39.101Z,1.30
2019-03-27T12:20:09.804Z,1.47
2019-03-27T12:22:39.763Z,1.37
2019-03-27T12:25:09.799Z,1.03
2019-03-27T12:27:39.938Z,1.10
2019-03-27T12:30:10.631Z,1.40
2019-03-27T12:32:40.627Z,1.00
2019-03-27T12:35:10.977Z,1.43
2019-03-27T12:37:40.967Z,1.20
2019-03-27T12:40:12.198Z,1.07
2019-03-27T12:42:42.232Z,1.70
2019-03-27T12:45:12.484Z,1.27
2019-03-27T12:47:42.567Z,1.00
2019-03-27T12:50:13.500Z,1.20
2019-03-27T12:52:43.651Z,1.40
2019-03-27T12:55:13.778Z,1.23
2019-03-27T12:57:43.808Z,1.83
2019-03-27T13:00:14.084Z,1.23
2019-03-27T13:02:44.042Z,1.50
2019-03-27T13:05:14.115Z,1.30
2019-03-27T13:07:49.745Z,1.47
2019-03-27T13:10:16.001Z,1.33
2019-03-27T13:12:46.063Z,1.07
2019-03-27T13:15:16.485Z,1.70
2019-03-27T13:17:46.418Z,1.33
2019-03-27T13:20:16.732Z,1.50
2019-03-27T13:22:46.705Z,1.33
2019-03-27T13:25:17.364Z,1.13
2019-03-27T13:27:47.702Z,1.10
2019-03-27T13:30:18.066Z,1.33
2019-03-27T13:32:48.081Z,1.40
2019-03-27T13:35:18.861Z,1.60
2019-03-27T13:37:48.845Z,1.20
2019-03-27T13:40:19.120Z,1.70
2019-03-27T13:42:49.173Z,1.63
2019-03-27T13:45:19.663Z,1.40
2019-03-27T13:47:49.756Z,1.60
2019-03-27T13:50:20.544Z,1.00
2019-03-27T13:52:50.557Z,1.23
2019-03-27T13:55:20.507Z,1.53
2019-03-27T13:57:50.482Z,1.43
2019-03-27T14:00:21.288Z,1.10
2019-03-27T14:02:51.414Z,2.50
2019-03-27T14:05:21.564Z,1.80
2019-03-27T14:07:51.579Z,1.60
2019-03-27T14:10:21.595Z,1.70
2019-03-27T14:12:51.535Z,1.47
2019-03-27T14:15:21.770Z,1.57
2019-03-27T14:17:52.049Z,1.73
2019-03-27T14:20:21.970Z,1.30
2019-03-27T14:22:51.934Z,1.43
2019-03-27T14:25:22.384Z,2.10
2019-03-27T14:27:52.536Z,1.40
2019-03-27T14:30:49.295Z,2.27
2019-03-27T14:33:19.673Z,2.07
2019-03-27T14:35:49.739Z,1.60
2019-03-27T14:38:19.686Z,1.70
2019-03-27T14:40:49.964Z,2.07
2019-03-27T14:43:19.980Z,1.87
2019-03-27T14:45:50.229Z,1.90
2019-03-27T14:48:20.392Z,2.30
2019-03-27T14:50:50.609Z,1.63
2019-03-27T14:53:20.667Z,1.60
2019-03-27T14:55:50.773Z,1.20
2019-03-27T14:58:20.722Z,1.60
2019-03-27T15:00:51.041Z,1.70
2019-03-27T15:03:21.070Z,1.17
2019-03-27T15:05:51.142Z,1.30
2019-03-27T15:08:21.313Z,2.03
2019-03-27T15:10:51.593Z,1.63
2019-03-27T15:13:21.990Z,2.57
2019-03-27T15:15:52.052Z,1.37
2019-03-27T15:18:22.136Z,1.70
2019-03-27T15:20:52.230Z,1.50
2019-03-27T15:23:22.374Z,1.87
2019-03-27T15:25:52.527Z,1.87
2019-03-27T15:28:22.539Z,1.87
2019-03-27T15:30:52.578Z,1.27
2019-03-27T15:33:22.851Z,1.90
2019-03-27T15:35:52.876Z,1.30
2019-03-27T15:38:22.904Z,1.53
2019-03-27T15:40:53.205Z,2.00
2019-03-27T15:43:23.349Z,1.37
2019-03-27T15:45:53.307Z,1.53
2019-03-27T15:48:23.309Z,1.80
2019-03-27T15:50:57.185Z,1.50
2019-03-27T15:53:25.426Z,1.90
2019-03-27T15:55:55.490Z,2.13
2019-03-27T15:58:25.627Z,1.50
2019-03-27T16:00:55.543Z,1.83
2019-03-27T16:03:25.561Z,1.60
2019-03-27T16:05:55.755Z,1.60
2019-03-27T16:08:25.835Z,1.70
2019-03-27T16:10:55.783Z,1.83
2019-03-27T16:13:25.919Z,1.40
2019-03-27T16:15:55.928Z,1.97
2019-03-27T16:18:25.942Z,1.53
2019-03-27T16:20:56.002Z,1.37
2019-03-27T16:23:26.063Z,1.70
2019-03-27T16:25:56.205Z,2.10
2019-03-27T16:28:26.562Z,1.40
2019-03-27T16:30:56.513Z,1.70
2019-03-27T16:33:26.508Z,1.43
2019-03-27T16:35:56.652Z,1.40
2019-03-27T16:38:26.636Z,1.27
2019-03-27T16:40:56.785Z,2.00
2019-03-27T16:43:26.724Z,1.30
2019-03-27T16:45:57.050Z,1.57
2019-03-27T16:48:27.086Z,1.53
2019-03-27T16:50:57.036Z,3.50
2019-03-27T16:53:27.176Z,1.80
2019-03-27T16:55:57.139Z,1.20
2019-03-27T16:58:27.197Z,1.37
2019-03-27T17:00:57.362Z,1.87
2019-03-27T17:03:27.363Z,1.90
2019-03-27T17:05:57.337Z,1.30
2019-03-27T17:08:27.495Z,2.40
2019-03-27T17:10:57.443Z,1.70
2019-03-27T17:13:27.492Z,1.27
2019-03-27T17:15:57.528Z,1.50
2019-03-27T17:18:28.339Z,1.63
2019-03-27T17:20:58.354Z,1.37
2019-03-27T17:23:28.387Z,1.63
2019-03-27T17:25:59.000Z,2.00
2019-03-27T17:28:28.926Z,1.43
2019-03-27T17:30:58.948Z,1.80
2019-03-27T17:33:28.978Z,1.60
2019-03-27T17:35:58.924Z,1.50
2019-03-27T17:38:28.918Z,1.37
2019-03-27T17:40:58.970Z,1.93
2019-03-27T17:43:29.143Z,1.37
2019-03-27T17:45:59.225Z,2.27
2019-03-27T17:48:29.156Z,1.80
2019-03-27T17:50:59.238Z,1.87
2019-03-27T17:53:32.105Z,1.50
2019-03-27T17:56:02.355Z,1.70
2019-03-27T17:58:32.611Z,1.60
2019-03-27T18:01:04.841Z,1.57
2019-03-27T18:03:34.892Z,1.60
2019-03-27T18:06:04.882Z,1.43
2019-03-27T18:08:34.965Z,1.63
2019-03-27T18:11:07.994Z,1.60
2019-03-27T18:13:37.127Z,1.50
2019-03-27T18:16:07.067Z,1.23
2019-03-27T18:18:37.065Z,1.60
2019-03-27T18:21:07.200Z,1.50
2019-03-27T18:23:46.001Z,1.47
2019-03-27T18:26:08.896Z,1.07
2019-03-27T18:28:38.958Z,1.30
2019-03-27T18:31:08.965Z,1.90
2019-03-27T18:33:38.910Z,1.50
2019-03-27T18:36:08.891Z,2.00
2019-03-27T18:38:38.827Z,1.70
2019-03-27T18:41:09.041Z,1.70
2019-03-27T18:43:39.029Z,1.70
2019-03-27T18:46:09.082Z,1.60
2019-03-27T18:48:39.082Z,1.37
2019-03-27T18:51:09.115Z,1.43
2019-03-27T18:53:39.121Z,1.50
2019-03-27T18:56:09.087Z,1.27
2019-03-27T18:58:39.026Z,1.63
2019-03-27T19:01:09.297Z,1.60
2019-03-27T19:03:39.309Z,1.67
2019-03-27T19:06:09.352Z,1.93
2019-03-27T19:08:39.514Z,2.60
2019-03-27T19:11:09.546Z,2.10
2019-03-27T19:13:39.678Z,1.60
2019-03-27T19:16:09.812Z,1.40
2019-03-27T19:18:39.739Z,1.97
2019-03-27T19:21:09.806Z,1.07
2019-03-27T19:23:39.889Z,1.70
2019-03-27T19:26:10.180Z,1.50
2019-03-27T19:28:40.301Z,1.63
2019-03-27T19:31:10.245Z,1.57
2019-03-27T19:33:40.259Z,1.93
2019-03-27T19:36:10.386Z,1.40
2019-03-27T19:38:40.588Z,1.60
2019-03-27T19:41:10.573Z,1.37
2019-03-27T19:43:40.533Z,1.70
2019-03-27T19:46:10.474Z,1.70
2019-03-27T19:48:40.654Z,2.00
2019-03-27T19:51:11.495Z,1.70
2019-03-27T19:53:41.834Z,1.87
2019-03-27T19:56:12.075Z,1.67
2019-03-27T19:58:42.288Z,1.90
2019-03-27T20:01:12.272Z,1.47
2019-03-27T20:03:42.255Z,1.57
2019-03-27T20:06:12.212Z,2.03
2019-03-27T20:08:42.279Z,1.47
2019-03-27T20:11:12.340Z,2.07
2019-03-27T20:13:42.391Z,1.97
2019-03-27T20:16:12.448Z,2.17
2019-03-27T20:18:42.414Z,1.70
2019-03-27T20:21:12.525Z,1.40
2019-03-27T20:23:42.542Z,1.40
2019-03-27T20:26:12.555Z,1.43
2019-03-27T20:28:42.801Z,3.33
2019-03-27T20:31:13.000Z,2.27
2019-03-27T20:33:43.161Z,2.00
2019-03-27T20:36:13.320Z,2.10
2019-03-27T20:38:43.459Z,1.93
2019-03-27T20:41:13.499Z,2.17
2019-03-27T20:43:43.445Z,2.60
2019-03-27T20:46:24.367Z,2.00
2019-03-27T20:48:45.135Z,2.57
2019-03-27T20:51:15.221Z,1.73
2019-03-27T20:53:45.226Z,2.00
2019-03-27T20:56:15.164Z,1.70
2019-03-27T20:58:45.134Z,2.03
2019-03-27T21:01:15.266Z,2.07
2019-03-27T21:03:45.194Z,1.77
2019-03-27T21:06:15.145Z,1.90
2019-03-27T21:08:45.118Z,2.00
2019-03-27T21:11:15.211Z,2.23
2019-03-27T21:13:45.156Z,1.67
2019-03-27T21:16:15.086Z,1.90
2019-03-27T21:18:45.405Z,2.20
2019-03-27T21:21:15.450Z,1.63
2019-03-27T21:23:45.793Z,2.37
2019-03-27T21:26:15.749Z,2.10
2019-03-27T21:28:45.903Z,2.07
2019-03-27T21:31:15.863Z,2.17
2019-03-27T21:33:45.818Z,1.70
2019-03-27T21:36:15.774Z,2.27
2019-03-27T21:38:46.029Z,2.13
2019-03-27T21:41:15.966Z,2.63
2019-03-27T21:43:46.389Z,2.67
2019-03-27T21:46:16.531Z,2.70
2019-03-27T21:48:46.465Z,2.87
2019-03-27T21:51:16.816Z,2.67
2019-03-27T21:53:50.592Z,2.03
2019-03-27T21:56:18.414Z,2.40
2019-03-27T21:58:48.775Z,2.40
2019-03-27T22:01:19.045Z,2.30
2019-03-27T22:03:49.219Z,2.40
2019-03-27T22:06:19.275Z,3.03
2019-03-27T22:08:49.291Z,3.30
2019-03-27T22:11:19.334Z,2.30
2019-03-27T22:13:49.341Z,3.70
2019-03-27T22:16:19.488Z,2.00
2019-03-27T22:18:49.438Z,2.37
2019-03-27T22:21:19.429Z,1.73
2019-03-27T22:23:49.540Z,2.70
2019-03-27T22:26:19.578Z,2.47
2019-03-27T22:28:49.559Z,3.10
2019-03-27T22:31:19.648Z,2.90
2019-03-27T22:33:49.712Z,3.43
2019-03-27T22:36:19.624Z,3.93
2019-03-27T22:38:49.767Z,3.40
2019-03-27T22:41:19.822Z,4.33
2019-03-27T22:43:49.910Z,4.83
2019-03-27T22:46:19.928Z,5.57
2019-03-27T22:48:50.022Z,4.87
2019-03-27T22:51:20.050Z,5.37
2019-03-27T22:53:50.190Z,5.80
2019-03-27T22:56:20.180Z,5.77
2019-03-27T22:58:50.290Z,5.07
2019-03-27T23:01:20.447Z,5.20
2019-03-27T23:03:50.651Z,4.53
2019-03-27T23:06:20.717Z,5.87
2019-03-27T23:08:50.764Z,5.30
2019-03-27T23:11:20.705Z,5.57
2019-03-27T23:13:50.616Z,5.60
2019-03-27T23:16:20.717Z,5.93
2019-03-27T23:18:50.638Z,5.53
2019-03-27T23:21:20.716Z,6.30
2019-03-27T23:23:50.726Z,5.57
2019-03-27T23:26:20.786Z,5.97
2019-03-27T23:28:50.845Z,5.53
2019-03-27T23:31:20.755Z,6.00
2019-03-27T23:33:50.702Z,5.60
2019-03-27T23:36:20.698Z,6.07
2019-03-27T23:38:50.830Z,5.03
2019-03-27T23:41:20.763Z,5.27
2019-03-27T23:43:50.799Z,5.47
2019-03-27T23:46:20.840Z,4.77
2019-03-27T23:48:50.799Z,5.80
2019-03-27T23:51:20.871Z,4.77
2019-03-27T23:53:51.076Z,5.03
2019-03-27T23:56:21.140Z,5.00
2019-03-27T23:58:51.150Z,6.23
